SWA353 KMKE-KMDW
Flight info
| Callsign | SWA353 |
|---|---|
| Flight time | 0h 32m |
| Altitude | 5000 |
| Route | OBK |
| Aircraft | B737/M-SDE2E3FGHIRWXY/LB1 |
Departure
| Time | 2026-04-26 14:29 |
|---|---|
| Airport | General Mitchell International Airport (KMKE) |
Arrival
| Time | 2026-04-26 15:01 |
|---|---|
| Airport | Chicago Midway International Airport (KMDW) |
| Time | Latitude | Longitude | Altitude | Speed | Heading |
|---|---|---|---|---|---|
| 2026-04-26 14:09 | 42.95106 | -87.90030 | 687 ft | 0 kts | 232° |
| 2026-04-26 14:19 | 42.95121 | -87.90007 | 680 ft | 4 kts | 221° |
| 2026-04-26 14:19 | 42.95142 | -87.89987 | 680 ft | 4 kts | 196° |
| 2026-04-26 14:19 | 42.95165 | -87.89987 | 681 ft | 3 kts | 139° |
| 2026-04-26 14:20 | 42.95171 | -87.89995 | 680 ft | 0 kts | 132° |
| 2026-04-26 14:22 | 42.95160 | -87.89978 | 683 ft | 9 kts | 132° |
| 2026-04-26 14:22 | 42.95091 | -87.89872 | 687 ft | 17 kts | 132° |
| 2026-04-26 14:22 | 42.94998 | -87.89786 | 686 ft | 16 kts | 136° |
| 2026-04-26 14:23 | 42.94912 | -87.89707 | 685 ft | 16 kts | 176° |
| 2026-04-26 14:23 | 42.94778 | -87.89721 | 685 ft | 22 kts | 186° |
| 2026-04-26 14:23 | 42.94622 | -87.89754 | 685 ft | 23 kts | 205° |
| 2026-04-26 14:23 | 42.94542 | -87.89905 | 682 ft | 14 kts | 246° |
| 2026-04-26 14:24 | 42.94475 | -87.89974 | 683 ft | 12 kts | 205° |
| 2026-04-26 14:24 | 42.94431 | -87.90107 | 683 ft | 22 kts | 251° |
| 2026-04-26 14:24 | 42.94373 | -87.90345 | 687 ft | 28 kts | 251° |
| 2026-04-26 14:24 | 42.94314 | -87.90585 | 681 ft | 26 kts | 251° |
| 2026-04-26 14:25 | 42.94260 | -87.90810 | 687 ft | 24 kts | 252° |
| 2026-04-26 14:25 | 42.94209 | -87.91020 | 684 ft | 23 kts | 251° |
| 2026-04-26 14:25 | 42.94159 | -87.91222 | 687 ft | 22 kts | 251° |
| 2026-04-26 14:25 | 42.94112 | -87.91415 | 683 ft | 21 kts | 251° |
| 2026-04-26 14:26 | 42.94065 | -87.91608 | 684 ft | 21 kts | 251° |
| 2026-04-26 14:26 | 42.94029 | -87.91757 | 687 ft | 11 kts | 251° |
| 2026-04-26 14:26 | 42.94010 | -87.91794 | 684 ft | 0 kts | 207° |
| 2026-04-26 14:28 | 42.94000 | -87.91796 | 680 ft | 6 kts | 178° |
| 2026-04-26 14:28 | 42.93938 | -87.91769 | 683 ft | 10 kts | 147° |
| 2026-04-26 14:28 | 42.93936 | -87.91662 | 687 ft | 26 kts | 71° |
| 2026-04-26 14:29 | 42.94082 | -87.91061 | 687 ft | 106 kts | 71° |
| 2026-04-26 14:29 | 42.94381 | -87.89821 | 767 ft | 161 kts | 75° |
| 2026-04-26 14:29 | 42.94690 | -87.88304 | 1550 ft | 167 kts | 84° |
| 2026-04-26 14:29 | 42.94552 | -87.86752 | 2441 ft | 174 kts | 115° |
| 2026-04-26 14:30 | 42.93667 | -87.85469 | 2789 ft | 207 kts | 144° |
| 2026-04-26 14:30 | 42.92360 | -87.84323 | 3075 ft | 242 kts | 146° |
| 2026-04-26 14:30 | 42.90893 | -87.83062 | 3870 ft | 253 kts | 146° |
| 2026-04-26 14:30 | 42.89403 | -87.81785 | 4664 ft | 254 kts | 146° |
| 2026-04-26 14:31 | 42.87912 | -87.80501 | 4984 ft | 253 kts | 146° |
| 2026-04-26 14:31 | 42.86426 | -87.79215 | 4993 ft | 253 kts | 146° |
| 2026-04-26 14:31 | 42.84944 | -87.77926 | 5004 ft | 253 kts | 146° |
| 2026-04-26 14:31 | 42.83456 | -87.76629 | 5042 ft | 255 kts | 145° |
| 2026-04-26 14:32 | 42.81941 | -87.75306 | 5051 ft | 261 kts | 146° |
| 2026-04-26 14:32 | 42.80412 | -87.73971 | 5023 ft | 259 kts | 146° |
| 2026-04-26 14:32 | 42.78903 | -87.72652 | 5002 ft | 255 kts | 146° |
| 2026-04-26 14:32 | 42.77430 | -87.71364 | 4975 ft | 250 kts | 146° |
| 2026-04-26 14:33 | 42.75975 | -87.70094 | 4992 ft | 247 kts | 146° |
| 2026-04-26 14:33 | 42.74513 | -87.68817 | 5012 ft | 253 kts | 146° |
| 2026-04-26 14:33 | 42.73017 | -87.67511 | 5023 ft | 257 kts | 146° |
| 2026-04-26 14:33 | 42.71505 | -87.66193 | 5015 ft | 257 kts | 146° |
| 2026-04-26 14:34 | 42.69994 | -87.64902 | 5006 ft | 256 kts | 150° |
| 2026-04-26 14:34 | 42.68284 | -87.64238 | 5013 ft | 259 kts | 172° |
| 2026-04-26 14:34 | 42.66492 | -87.64096 | 5010 ft | 259 kts | 174° |
| 2026-04-26 14:34 | 42.64676 | -87.63980 | 5007 ft | 259 kts | 174° |
| 2026-04-26 14:35 | 42.62915 | -87.63866 | 5009 ft | 258 kts | 174° |
| 2026-04-26 14:35 | 42.61122 | -87.63745 | 5008 ft | 259 kts | 174° |
| 2026-04-26 14:35 | 42.59319 | -87.63617 | 5009 ft | 259 kts | 174° |
| 2026-04-26 14:35 | 42.57524 | -87.63487 | 5000 ft | 259 kts | 174° |
| 2026-04-26 14:36 | 42.55719 | -87.63355 | 4990 ft | 260 kts | 174° |
| 2026-04-26 14:36 | 42.53907 | -87.63223 | 4987 ft | 261 kts | 174° |
| 2026-04-26 14:36 | 42.52094 | -87.63083 | 4985 ft | 261 kts | 174° |
| 2026-04-26 14:36 | 42.50279 | -87.62936 | 4985 ft | 261 kts | 174° |
| 2026-04-26 14:37 | 42.48467 | -87.62790 | 4985 ft | 261 kts | 174° |
| 2026-04-26 14:37 | 42.46647 | -87.62641 | 4986 ft | 261 kts | 173° |
| 2026-04-26 14:37 | 42.44865 | -87.62228 | 4987 ft | 259 kts | 164° |
| 2026-04-26 14:37 | 42.43123 | -87.61624 | 4989 ft | 259 kts | 162° |
| 2026-04-26 14:38 | 42.41380 | -87.60991 | 4985 ft | 259 kts | 162° |
| 2026-04-26 14:38 | 42.39638 | -87.60362 | 4984 ft | 259 kts | 163° |
| 2026-04-26 14:38 | 42.37893 | -87.59743 | 4988 ft | 259 kts | 163° |
| 2026-04-26 14:38 | 42.36740 | -87.59338 | 4987 ft | 259 kts | 163° |
| 2026-04-26 14:39 | 42.34397 | -87.58526 | 4982 ft | 260 kts | 163° |
| 2026-04-26 14:39 | 42.32646 | -87.57925 | 4985 ft | 260 kts | 163° |
| 2026-04-26 14:39 | 42.30895 | -87.57328 | 4988 ft | 260 kts | 163° |
| 2026-04-26 14:39 | 42.29147 | -87.56734 | 4985 ft | 260 kts | 163° |
| 2026-04-26 14:40 | 42.27393 | -87.56140 | 4987 ft | 260 kts | 163° |
| 2026-04-26 14:40 | 42.25639 | -87.55547 | 4984 ft | 260 kts | 163° |
| 2026-04-26 14:40 | 42.23886 | -87.54956 | 4988 ft | 260 kts | 163° |
| 2026-04-26 14:40 | 42.22104 | -87.54514 | 4979 ft | 262 kts | 175° |
| 2026-04-26 14:41 | 42.20281 | -87.54572 | 4991 ft | 263 kts | 180° |
| 2026-04-26 14:41 | 42.18459 | -87.54711 | 4980 ft | 263 kts | 180° |
| 2026-04-26 14:41 | 42.16634 | -87.54860 | 4991 ft | 263 kts | 181° |
| 2026-04-26 14:41 | 42.14834 | -87.55004 | 4991 ft | 263 kts | 181° |
| 2026-04-26 14:42 | 42.13008 | -87.55145 | 4981 ft | 263 kts | 181° |
| 2026-04-26 14:42 | 42.11183 | -87.55284 | 4983 ft | 263 kts | 181° |
| 2026-04-26 14:42 | 42.09355 | -87.55424 | 4985 ft | 262 kts | 181° |
| 2026-04-26 14:42 | 42.07532 | -87.55563 | 4982 ft | 262 kts | 181° |
| 2026-04-26 14:43 | 42.06152 | -87.55667 | 4979 ft | 263 kts | 181° |
| 2026-04-26 14:43 | 42.04331 | -87.55805 | 4978 ft | 262 kts | 181° |
| 2026-04-26 14:43 | 42.02503 | -87.55944 | 4969 ft | 263 kts | 181° |
| 2026-04-26 14:43 | 42.00684 | -87.56081 | 4970 ft | 263 kts | 181° |
| 2026-04-26 14:44 | 41.98861 | -87.56218 | 4967 ft | 262 kts | 181° |
| 2026-04-26 14:44 | 41.97031 | -87.56356 | 4967 ft | 262 kts | 181° |
| 2026-04-26 14:44 | 41.95216 | -87.56492 | 4963 ft | 262 kts | 181° |
| 2026-04-26 14:44 | 41.93394 | -87.56622 | 4967 ft | 262 kts | 181° |
| 2026-04-26 14:45 | 41.90346 | -87.56828 | 4960 ft | 258 kts | 181° |
| 2026-04-26 14:45 | 41.87930 | -87.56990 | 4974 ft | 261 kts | 181° |
| 2026-04-26 14:45 | 41.86107 | -87.57111 | 4976 ft | 264 kts | 181° |
| 2026-04-26 14:46 | 41.84888 | -87.57192 | 4969 ft | 264 kts | 181° |
| 2026-04-26 14:46 | 41.82731 | -87.57335 | 4955 ft | 259 kts | 181° |
| 2026-04-26 14:46 | 41.80933 | -87.57456 | 4965 ft | 259 kts | 181° |
| 2026-04-26 14:46 | 41.79138 | -87.57713 | 4954 ft | 263 kts | 195° |
| 2026-04-26 14:47 | 41.77520 | -87.58892 | 4977 ft | 268 kts | 214° |
| 2026-04-26 14:47 | 41.76045 | -87.60436 | 4963 ft | 270 kts | 216° |
| 2026-04-26 14:47 | 41.74581 | -87.62025 | 4961 ft | 271 kts | 217° |
| 2026-04-26 14:47 | 41.73114 | -87.63603 | 4968 ft | 271 kts | 216° |
| 2026-04-26 14:48 | 41.71630 | -87.65172 | 4961 ft | 271 kts | 216° |
| 2026-04-26 14:48 | 41.70173 | -87.66710 | 4957 ft | 271 kts | 216° |
| 2026-04-26 14:48 | 41.68672 | -87.68290 | 4959 ft | 270 kts | 216° |
| 2026-04-26 14:48 | 41.67198 | -87.69840 | 4956 ft | 269 kts | 216° |
| 2026-04-26 14:49 | 41.65736 | -87.71382 | 4955 ft | 268 kts | 216° |
| 2026-04-26 14:49 | 41.64297 | -87.72902 | 4960 ft | 267 kts | 216° |
| 2026-04-26 14:49 | 41.63063 | -87.74211 | 4960 ft | 265 kts | 216° |
| 2026-04-26 14:49 | 41.61625 | -87.75742 | 4957 ft | 264 kts | 216° |
| 2026-04-26 14:50 | 41.60180 | -87.77279 | 4952 ft | 264 kts | 216° |
| 2026-04-26 14:50 | 41.58756 | -87.78794 | 4766 ft | 261 kts | 216° |
| 2026-04-26 14:50 | 41.57328 | -87.80318 | 4330 ft | 263 kts | 216° |
| 2026-04-26 14:50 | 41.55895 | -87.81844 | 4010 ft | 264 kts | 216° |
| 2026-04-26 14:51 | 41.54457 | -87.83368 | 3982 ft | 266 kts | 216° |
| 2026-04-26 14:51 | 41.53004 | -87.84913 | 3959 ft | 266 kts | 216° |
| 2026-04-26 14:51 | 41.51560 | -87.86436 | 3945 ft | 263 kts | 216° |
| 2026-04-26 14:51 | 41.50132 | -87.87938 | 3944 ft | 260 kts | 216° |
| 2026-04-26 14:52 | 41.48715 | -87.89439 | 3943 ft | 261 kts | 216° |
| 2026-04-26 14:52 | 41.47285 | -87.90947 | 3931 ft | 262 kts | 216° |
| 2026-04-26 14:52 | 41.45959 | -87.92614 | 3925 ft | 266 kts | 233° |
| 2026-04-26 14:52 | 41.45302 | -87.94917 | 3928 ft | 269 kts | 262° |
| 2026-04-26 14:53 | 41.45534 | -87.97302 | 3918 ft | 256 kts | 292° |
| 2026-04-26 14:53 | 41.46559 | -87.99123 | 3921 ft | 239 kts | 324° |
| 2026-04-26 14:53 | 41.47997 | -87.99885 | 3919 ft | 212 kts | 358° |
| 2026-04-26 14:53 | 41.49412 | -87.99854 | 3935 ft | 199 kts | 5° |
| 2026-04-26 14:54 | 41.50762 | -87.99741 | 3946 ft | 197 kts | 6° |
| 2026-04-26 14:54 | 41.52122 | -87.99448 | 3951 ft | 199 kts | 15° |
| 2026-04-26 14:54 | 41.53473 | -87.99011 | 3958 ft | 201 kts | 16° |
| 2026-04-26 14:54 | 41.54845 | -87.98562 | 3950 ft | 204 kts | 16° |
| 2026-04-26 14:55 | 41.56215 | -87.98123 | 3924 ft | 202 kts | 16° |
| 2026-04-26 14:55 | 41.57580 | -87.97687 | 3792 ft | 201 kts | 16° |
| 2026-04-26 14:55 | 41.58930 | -87.97263 | 3660 ft | 197 kts | 16° |
| 2026-04-26 14:55 | 41.60250 | -87.96849 | 3530 ft | 193 kts | 16° |
| 2026-04-26 14:56 | 41.61554 | -87.96403 | 3403 ft | 193 kts | 26° |
| 2026-04-26 14:56 | 41.62598 | -87.95341 | 3279 ft | 188 kts | 47° |
| 2026-04-26 14:56 | 41.63566 | -87.94156 | 3178 ft | 189 kts | 45° |
| 2026-04-26 14:56 | 41.64534 | -87.92963 | 3091 ft | 190 kts | 46° |
| 2026-04-26 14:57 | 41.65494 | -87.91753 | 3014 ft | 189 kts | 46° |
| 2026-04-26 14:57 | 41.66442 | -87.90548 | 3014 ft | 186 kts | 47° |
| 2026-04-26 14:57 | 41.67375 | -87.89359 | 3012 ft | 185 kts | 47° |
| 2026-04-26 14:57 | 41.68305 | -87.88173 | 3010 ft | 185 kts | 47° |
| 2026-04-26 14:58 | 41.69244 | -87.86975 | 3006 ft | 187 kts | 47° |
| 2026-04-26 14:58 | 41.69876 | -87.86168 | 2868 ft | 191 kts | 47° |
| 2026-04-26 14:58 | 41.70829 | -87.84955 | 2631 ft | 188 kts | 47° |
| 2026-04-26 14:58 | 41.71764 | -87.83766 | 2388 ft | 182 kts | 47° |
| 2026-04-26 14:59 | 41.72955 | -87.82248 | 2056 ft | 175 kts | 46° |
| 2026-04-26 14:59 | 41.73820 | -87.81148 | 1828 ft | 166 kts | 46° |
| 2026-04-26 14:59 | 41.74363 | -87.80457 | 1683 ft | 157 kts | 47° |
| 2026-04-26 14:59 | 41.74871 | -87.79810 | 1563 ft | 144 kts | 47° |
| 2026-04-26 15:00 | 41.75789 | -87.78640 | 1278 ft | 133 kts | 46° |
| 2026-04-26 15:00 | 41.76450 | -87.77799 | 1091 ft | 129 kts | 47° |
| 2026-04-26 15:00 | 41.77094 | -87.76979 | 903 ft | 125 kts | 46° |
| 2026-04-26 15:00 | 41.77726 | -87.76180 | 733 ft | 123 kts | 46° |
| 2026-04-26 15:01 | 41.78322 | -87.75419 | 637 ft | 109 kts | 44° |
| 2026-04-26 15:01 | 41.78770 | -87.74851 | 632 ft | 69 kts | 44° |
| 2026-04-26 15:01 | 41.78956 | -87.74581 | 631 ft | 17 kts | 84° |
| 2026-04-26 15:01 | 41.78897 | -87.74535 | 628 ft | 7 kts | 217° |
| 2026-04-26 15:02 | 41.78882 | -87.74552 | 630 ft | 2 kts | 222° |
| 2026-04-26 15:02 | 41.78873 | -87.74563 | 634 ft | 2 kts | 222° |
| 2026-04-26 15:02 | 41.78864 | -87.74574 | 631 ft | 2 kts | 223° |
| 2026-04-26 15:02 | 41.78856 | -87.74585 | 635 ft | 2 kts | 223° |
| 2026-04-26 15:03 | 41.78840 | -87.74605 | 631 ft | 5 kts | 223° |
| 2026-04-26 15:03 | 41.78806 | -87.74648 | 631 ft | 12 kts | 223° |
| 2026-04-26 15:03 | 41.78728 | -87.74748 | 628 ft | 17 kts | 223° |
| 2026-04-26 15:03 | 41.78619 | -87.74778 | 628 ft | 17 kts | 163° |
| 2026-04-26 15:04 | 41.78534 | -87.74681 | 633 ft | 16 kts | 133° |
| 2026-04-26 15:04 | 41.78526 | -87.74564 | 628 ft | 15 kts | 48° |
| 2026-04-26 15:04 | 41.78598 | -87.74473 | 631 ft | 12 kts | 40° |
| 2026-04-26 15:04 | 41.78636 | -87.74494 | 631 ft | 6 kts | 311° |
| 2026-04-26 15:05 | 41.78643 | -87.74505 | 630 ft | 0 kts | 312° |